Terminal Aerodrome Forecast
Issued by NWS Anchorage, AK

Current Version | Previous Version | Text Only | Print | Product List | Glossary On
Versions: 1 2 3 4 5 6 7 8 9 10 11 12 13 14 15 16 17 18 19 20 21 22 23 24 25 26 27 28 29 30 31 32 33 34 35 36 37 38 39 40 41
000
FTAK31 PANC 311726
TAFANC
TAF
PANC 311726Z 3118/0124 35012G18KT P6SM FEW050 SCT070 BKN150
     FM312000 35016G28KT P6SM SCT100 BKN150
     FM010300 34012G18KT P6SM SKC
     FM010800 36009KT P6SM SKC
     FM011500 36005KT P6SM SKC=

USA.gov is the U.S. government's official web portal to all federal, state and local government web resources and services.